createdAt,value
2019-04-29T00:00:03.072Z,8.5
2019-04-29T00:05:07.637Z,8.5
2019-04-29T00:10:12.199Z,8.4
2019-04-29T00:15:17.598Z,8.4
2019-04-29T00:20:23.273Z,8.3
2019-04-29T00:25:28.393Z,8.3
2019-04-29T00:30:33.790Z,8.2
2019-04-29T00:35:39.187Z,8.2
2019-04-29T00:40:44.301Z,8.1
2019-04-29T00:45:49.696Z,8.1
2019-04-29T00:50:55.369Z,8
2019-04-29T00:56:00.498Z,8
2019-04-29T01:01:05.603Z,7.9
2019-04-29T01:06:10.998Z,7.9
2019-04-29T01:11:16.117Z,7.8
2019-04-29T01:16:21.235Z,7.8
2019-04-29T01:21:26.636Z,7.8
2019-04-29T01:26:31.755Z,7.7
2019-04-29T01:31:37.148Z,7.7
2019-04-29T01:36:42.822Z,7.7
2019-04-29T01:41:47.942Z,7.6
2019-04-29T01:46:53.334Z,7.6
2019-04-29T01:51:58.445Z,7.5
2019-04-29T01:57:03.844Z,7.5
2019-04-29T02:02:08.676Z,7.5
2019-04-29T02:07:14.347Z,7.5
2019-04-29T02:12:19.182Z,7.5
2019-04-29T02:17:24.575Z,7.5
2019-04-29T02:22:29.690Z,7.5
2019-04-29T02:27:34.802Z,7.5
2019-04-29T02:32:40.201Z,7.6
2019-04-29T02:37:45.326Z,7.6
2019-04-29T02:42:50.715Z,7.6
2019-04-29T02:47:56.389Z,7.6
2019-04-29T02:53:01.510Z,7.6
2019-04-29T02:58:06.910Z,7.6
2019-04-29T03:03:15.799Z,7.6
2019-04-29T03:08:20.919Z,7.6
2019-04-29T03:13:26.321Z,7.6
2019-04-29T03:18:31.716Z,7.6
2019-04-29T03:23:36.827Z,7.6
2019-04-29T03:28:42.505Z,7.6
2019-04-29T03:33:48.183Z,7.6
2019-04-29T03:38:53.301Z,7.7
2019-04-29T03:43:58.695Z,7.7
2019-04-29T03:49:03.541Z,7.7
2019-04-29T03:54:09.216Z,7.7
2019-04-29T03:59:14.612Z,7.8
2019-04-29T04:04:20.001Z,7.9
2019-04-29T04:09:25.680Z,7.9
2019-04-29T04:14:31.356Z,7.9
2019-04-29T04:19:36.769Z,8
2019-04-29T04:24:41.620Z,8
2019-04-29T04:29:47.012Z,8.1
2019-04-29T04:34:52.695Z,8.1
2019-04-29T04:39:57.815Z,8.2
2019-04-29T04:45:03.480Z,8.2
2019-04-29T04:50:08.596Z,8.3
2019-04-29T04:55:14.267Z,8.3
2019-04-29T05:00:21.356Z,8.3
2019-04-29T05:05:26.476Z,8.4
2019-04-29T05:10:31.632Z,8.5
2019-04-29T05:15:37.014Z,8.5
2019-04-29T05:20:41.854Z,8.6
2019-04-29T05:25:47.531Z,8.7
2019-04-29T05:30:52.378Z,8.8
2019-04-29T05:36:04.167Z,8.9
2019-04-29T05:41:09.013Z,9
2019-04-29T05:46:21.434Z,9.1
2019-04-29T05:51:28.796Z,9.1
2019-04-29T05:56:33.922Z,9.1
2019-04-29T06:01:47.117Z,9.2
2019-04-29T06:06:53.252Z,9.2
2019-04-29T06:11:58.928Z,9.2
2019-04-29T06:17:08.467Z,9.2
2019-04-29T06:22:13.868Z,9.3
2019-04-29T06:27:19.550Z,9.3
2019-04-29T06:32:26.963Z,9.4
2019-04-29T06:37:31.814Z,9.4
2019-04-29T06:42:36.940Z,9.4
2019-04-29T06:47:41.782Z,9.5
2019-04-29T06:52:46.908Z,9.5
2019-04-29T06:57:52.034Z,9.5
2019-04-29T07:02:57.436Z,9.6
2019-04-29T07:08:02.559Z,9.6
2019-04-29T07:13:07.961Z,9.6
2019-04-29T07:18:13.360Z,9.7
2019-04-29T07:23:18.767Z,9.7
2019-04-29T07:28:23.893Z,9.8
2019-04-29T07:33:28.743Z,9.8
2019-04-29T07:38:51.209Z,9.8
2019-04-29T07:44:01.013Z,9.8
2019-04-29T07:49:06.702Z,9.9
2019-04-29T07:54:18.072Z,9.9
2019-04-29T07:59:22.922Z,9.9
2019-04-29T08:04:28.318Z,10
2019-04-29T08:09:33.723Z,10
2019-04-29T08:14:38.847Z,10
2019-04-29T08:19:44.532Z,10.1
2019-04-29T08:24:52.713Z,10.2
2019-04-29T08:29:58.121Z,10.3
2019-04-29T08:35:04.241Z,10.3
2019-04-29T08:40:17.546Z,10.3
2019-04-29T08:45:23.229Z,10.3
2019-04-29T08:50:28.072Z,10.3
2019-04-29T08:55:36.855Z,10.3
2019-04-29T09:00:41.984Z,10.3
2019-04-29T09:06:06.299Z,10.3
2019-04-29T09:11:15.070Z,10.4
2019-04-29T09:16:20.753Z,10.4
2019-04-29T09:21:26.156Z,10.4
2019-04-29T09:26:31.009Z,10.4
2019-04-29T09:31:36.695Z,10.5
2019-04-29T09:36:50.322Z,10.5
2019-04-29T09:41:55.742Z,10.5
2019-04-29T09:47:08.421Z,10.5
2019-04-29T09:52:14.852Z,10.6
2019-04-29T09:57:19.976Z,10.6
2019-04-29T10:02:33.130Z,10.6
2019-04-29T10:07:38.489Z,10.7
2019-04-29T10:12:43.901Z,10.7
2019-04-29T10:17:56.669Z,10.8
2019-04-29T10:23:01.490Z,10.8
2019-04-29T10:28:06.371Z,10.9
2019-04-29T10:33:19.398Z,11
2019-04-29T10:38:27.434Z,11
2019-04-29T10:43:35.492Z,11.1
2019-04-29T10:48:40.393Z,11.2
2019-04-29T10:53:52.674Z,11.3
2019-04-29T10:58:58.233Z,11.4
2019-04-29T11:04:03.743Z,11.6
2019-04-29T11:09:16.644Z,11.8
2019-04-29T11:14:25.213Z,12
2019-04-29T11:19:30.071Z,12.2
2019-04-29T11:24:43.218Z,12.4
2019-04-29T11:29:48.358Z,12.6
2019-04-29T11:34:56.073Z,12.8
2019-04-29T11:40:01.490Z,13
2019-04-29T11:45:06.647Z,13.3
2019-04-29T11:50:14.150Z,13.5
2019-04-29T11:55:21.103Z,13.7
2019-04-29T12:00:26.567Z,14
2019-04-29T12:05:32.024Z,14.2
2019-04-29T12:11:05.863Z,14.5
2019-04-29T12:16:12.202Z,14.8
2019-04-29T12:21:17.346Z,15.1
2019-04-29T12:26:22.775Z,15.4
2019-04-29T12:31:27.928Z,15.7
2019-04-29T12:36:56.748Z,16
2019-04-29T12:42:06.288Z,16.4
2019-04-29T12:47:25.328Z,16.7
2019-04-29T12:52:31.764Z,17
2019-04-29T12:57:36.930Z,17.2
2019-04-29T13:02:42.394Z,17.5
2019-04-29T13:07:47.272Z,17.7
2019-04-29T13:12:52.149Z,18
2019-04-29T13:18:16.950Z,18.2
2019-04-29T13:24:12.441Z,18.6
2019-04-29T13:29:37.419Z,18.9
2019-04-29T13:34:42.680Z,19.2
2019-04-29T13:39:47.856Z,19.6
2019-04-29T13:45:14.067Z,19.9
2019-04-29T13:50:40.769Z,20.2
2019-04-29T13:56:11.459Z,20.6
2019-04-29T14:02:08.086Z,20.9
2019-04-29T14:07:19.863Z,21.1
2019-04-29T14:14:47.643Z,21.3
2019-04-29T14:19:52.839Z,21.5
2019-04-29T14:25:01.646Z,21.7
2019-04-29T14:30:09.602Z,21.7
2019-04-29T14:35:15.061Z,21.8
2019-04-29T14:40:20.796Z,21.9
2019-04-29T14:45:26.538Z,21.9
2019-04-29T14:50:31.724Z,21.9
2019-04-29T14:55:37.189Z,21.9
2019-04-29T15:00:42.619Z,21.9
2019-04-29T15:05:47.476Z,21.8
2019-04-29T15:10:52.147Z,21.8
2019-04-29T15:16:13.831Z,21.7
2019-04-29T15:21:34.816Z,21.7
2019-04-29T15:26:50.638Z,21.6
2019-04-29T15:31:55.540Z,21.6
2019-04-29T15:37:00.178Z,21.6
2019-04-29T15:42:09.907Z,21.5
2019-04-29T15:47:15.245Z,21.5
2019-04-29T15:54:26.407Z,21.4
2019-04-29T15:59:51.116Z,21.3
2019-04-29T16:05:26.813Z,21.3
2019-04-29T16:10:31.749Z,21.2
2019-04-29T16:15:36.951Z,21.1
2019-04-29T16:20:42.125Z,21.1
2019-04-29T16:25:55.022Z,21
2019-04-29T16:31:14.415Z,20.9
2019-04-29T16:36:19.281Z,20.8
2019-04-29T16:41:25.013Z,20.8
2019-04-29T16:46:38.435Z,20.7
2019-04-29T16:51:53.429Z,20.7
2019-04-29T16:57:00.592Z,20.6
2019-04-29T17:02:06.043Z,20.5
2019-04-29T17:07:14.652Z,20.5
2019-04-29T17:12:20.247Z,20.4
2019-04-29T17:17:30.191Z,20.3
2019-04-29T17:22:44.783Z,20.3
2019-04-29T17:27:49.901Z,20.2
2019-04-29T17:32:58.265Z,20.1
2019-04-29T17:38:07.952Z,20
2019-04-29T17:43:13.673Z,19.9
2019-04-29T17:48:20.015Z,19.8
2019-04-29T17:53:26.197Z,19.7
2019-04-29T17:58:31.952Z,19.6
2019-04-29T18:03:43.364Z,19.4
2019-04-29T18:08:50.308Z,19.2
2019-04-29T18:13:58.389Z,19
2019-04-29T18:19:05.525Z,18.8
2019-04-29T18:24:11.217Z,18.6
2019-04-29T18:29:17.386Z,18.3
2019-04-29T18:34:22.540Z,18.1
2019-04-29T18:39:32.662Z,17.9
2019-04-29T18:45:00.311Z,17.6
2019-04-29T18:50:06.211Z,17.4
2019-04-29T18:55:11.643Z,17.2
2019-04-29T19:00:22.691Z,17
2019-04-29T19:05:35.640Z,16.7
2019-04-29T19:10:40.768Z,16.5
2019-04-29T19:15:49.602Z,16.3
2019-04-29T19:20:57.592Z,16.2
2019-04-29T19:26:03.017Z,16
2019-04-29T19:31:11.101Z,15.8
2019-04-29T19:36:22.626Z,15.6
2019-04-29T19:41:28.839Z,15.4
2019-04-29T19:46:41.560Z,15.2
2019-04-29T19:51:48.573Z,15
2019-04-29T19:57:07.408Z,14.9
2019-04-29T20:02:14.053Z,14.7
2019-04-29T20:07:26.646Z,14.5
2019-04-29T20:12:37.994Z,14.3
2019-04-29T20:17:50.573Z,14.1
2019-04-29T20:22:57.052Z,13.9
2019-04-29T20:28:18.158Z,13.7
2019-04-29T20:33:26.428Z,13.6
2019-04-29T20:38:39.628Z,13.4
2019-04-29T20:43:47.159Z,13.2
2019-04-29T20:49:00.268Z,13.1
2019-04-29T20:54:13.974Z,12.9
2019-04-29T20:59:26.641Z,12.7
2019-04-29T21:04:47.773Z,12.6
2019-04-29T21:09:53.080Z,12.5
2019-04-29T21:15:16.645Z,12.3
2019-04-29T21:20:21.207Z,12.1
2019-04-29T21:25:30.976Z,12
2019-04-29T21:30:45.062Z,11.8
2019-04-29T21:35:57.970Z,11.6
2019-04-29T21:41:03.009Z,11.4
2019-04-29T21:46:07.859Z,11.3
2019-04-29T21:51:15.386Z,11.1
2019-04-29T21:56:22.715Z,10.9
2019-04-29T22:01:37.490Z,10.8
2019-04-29T22:06:42.731Z,10.6
2019-04-29T22:11:51.229Z,10.5
2019-04-29T22:16:58.306Z,10.3
2019-04-29T22:22:03.441Z,10.2
2019-04-29T22:27:10.044Z,10.1
2019-04-29T22:32:20.067Z,9.9
2019-04-29T22:37:34.549Z,9.8
2019-04-29T22:42:42.941Z,9.7
2019-04-29T22:48:17.323Z,9.5
2019-04-29T22:53:26.085Z,9.4
2019-04-29T22:58:31.485Z,9.3
2019-04-29T23:03:42.767Z,9.2
2019-04-29T23:08:51.057Z,9.1
2019-04-29T23:13:56.352Z,9
2019-04-29T23:19:01.201Z,8.9
2019-04-29T23:24:17.621Z,8.8
2019-04-29T23:29:22.927Z,8.7
2019-04-29T23:34:30.694Z,8.6
2019-04-29T23:39:36.002Z,8.5
2019-04-29T23:44:44.714Z,8.4
2019-04-29T23:49:49.287Z,8.3
2019-04-29T23:54:54.121Z,8.2
2019-04-29T23:59:59.809Z,8.1
